Time;durP1;ratioP1;P1;durP2;ratioP2;P2;SDS_P1;SDS_P2;PMS_P1;PMS_P2;Temp;Humidity;BMP_temperature;BMP_pressure;BME280_temperature;BME280_humidity;BME280_pressure;Samples;Min_cycle;Max_cycle;Signal;HPM_P1;HPM_P2
2022/09/19 00:01:38;;;;;;;3.67;1.67;;;;;;;23.33;45.47;100617.50;5094038;28;20491;-73
2022/09/19 00:04:08;;;;;;;3.85;2.00;;;;;;;23.33;45.38;100621.06;5094466;28;20047;-73
2022/09/19 00:06:37;;;;;;;2.28;1.67;;;;;;;23.33;45.48;100618.34;5094097;28;20044;-73
2022/09/19 00:09:07;;;;;;;2.35;1.75;;;;;;;23.32;45.58;100613.97;5094133;28;20062;-74
2022/09/19 00:11:39;;;;;;;2.30;1.63;;;;;;;23.34;45.54;100619.22;5094437;28;20052;-74
2022/09/19 00:14:09;;;;;;;2.70;1.80;;;;;;;23.32;45.52;100613.97;5093912;28;20059;-74
2022/09/19 00:16:39;;;;;;;2.03;1.45;;;;;;;23.33;45.61;100622.91;5092505;28;20048;-74
2022/09/19 00:19:09;;;;;;;2.38;1.90;;;;;;;23.32;45.69;100615.81;5094156;28;20055;-74
2022/09/19 00:21:39;;;;;;;3.15;1.73;;;;;;;23.32;45.46;100618.53;5093560;28;20047;-74
2022/09/19 00:26:57;;;;;;;2.15;1.60;;;;;;;23.31;45.53;100614.97;5093522;28;20044;-74
2022/09/19 00:29:24;;;;;;;6.40;2.00;;;;;;;23.32;45.78;100615.81;5092465;28;20056;-73
2022/09/19 00:31:52;;;;;;;4.03;2.00;;;;;;;23.32;45.57;100608.56;5091978;28;20055;-74
2022/09/19 00:34:20;;;;;;;3.85;1.70;;;;;;;23.32;45.75;100610.41;5091903;28;20051;-74
2022/09/19 00:36:48;;;;;;;4.15;2.45;;;;;;;23.32;45.84;100610.41;5093084;28;20059;-74
2022/09/19 00:39:18;;;;;;;2.25;1.50;;;;;;;23.32;45.40;100600.47;5093870;28;20048;-74
2022/09/19 00:41:46;;;;;;;3.67;1.63;;;;;;;23.30;45.69;100599.78;5094385;28;20043;-74
2022/09/19 00:44:23;;;;;;;2.53;1.88;;;;;;;23.31;45.49;100598.78;5093453;28;20048;-74
2022/09/19 00:47:00;;;;;;;2.38;1.60;;;;;;;23.30;45.62;100597.09;5092956;28;20052;-74
2022/09/19 00:49:30;;;;;;;2.42;1.70;;;;;;;23.32;45.61;100596.91;5092263;28;20044;-74
2022/09/19 00:52:03;;;;;;;2.10;1.52;;;;;;;23.30;45.64;100602.50;5093244;28;20044;-74
2022/09/19 00:54:40;;;;;;;3.10;1.55;;;;;;;23.31;45.69;100604.19;5092425;28;20052;-74
2022/09/19 00:57:11;;;;;;;3.90;1.80;;;;;;;23.31;45.75;100598.78;5097608;28;20040;-74
2022/09/19 00:59:43;;;;;;;5.43;2.00;;;;;;;23.30;45.66;100597.09;5079981;28;20048;-73
2022/09/19 01:02:11;;;;;;;1.92;1.50;;;;;;;23.29;45.77;100595.38;5096191;28;20052;-74
2022/09/19 01:04:40;;;;;;;3.10;1.55;;;;;;;23.30;45.76;100588.16;5095897;28;20504;-73
2022/09/19 01:07:41;;;;;;;2.28;1.60;;;;;;;23.30;45.51;100588.16;5097224;28;20036;-73
2022/09/19 01:10:30;;;;;;;3.40;1.73;;;;;;;23.29;45.61;100584.56;5091853;28;20052;-74
2022/09/19 01:13:09;;;;;;;2.40;1.50;;;;;;;23.29;45.50;100578.31;5096521;28;20071;-73
2022/09/19 01:15:39;;;;;;;3.60;1.65;;;;;;;23.30;45.65;100582.75;5095493;28;20063;-74
2022/09/19 01:18:08;;;;;;;5.13;1.98;;;;;;;23.29;45.62;100583.72;5096223;28;20044;-74
2022/09/19 01:20:39;;;;;;;2.90;1.60;;;;;;;23.28;45.64;100577.50;5095755;28;20504;-74
2022/09/19 01:23:36;;;;;;;2.97;1.90;;;;;;;23.29;45.73;100572.94;5095932;28;20044;-74
2022/09/19 01:26:09;;;;;;;3.08;2.10;;;;;;;23.29;45.57;100581.03;5095934;28;20056;-73
2022/09/19 01:28:46;;;;;;;3.00;1.52;;;;;;;23.29;45.66;100583.72;5095399;28;20044;-74
2022/09/19 01:31:21;;;;;;;2.47;1.80;;;;;;;23.29;45.70;100591.84;5095475;28;20067;-73
2022/09/19 01:33:55;;;;;;;2.22;1.90;;;;;;;23.28;45.63;100576.66;5096831;28;20407;-74
2022/09/19 01:36:27;;;;;;;2.80;1.45;;;;;;;23.29;45.58;100575.63;5095383;28;20052;-74
2022/09/19 01:38:57;;;;;;;2.58;1.70;;;;;;;23.28;45.63;100572.09;5095536;28;20048;-74
2022/09/19 01:41:31;;;;;;;2.65;2.10;;;;;;;23.27;45.77;100566.84;5096840;28;20039;-73
2022/09/19 01:44:05;;;;;;;2.65;2.03;;;;;;;23.27;45.83;100570.41;5095213;28;20523;-74
2022/09/19 01:46:59;;;;;;;2.65;1.30;;;;;;;23.28;45.84;100568.53;5095281;28;20056;-74
2022/09/19 01:49:42;;;;;;;3.08;1.80;;;;;;;23.27;45.54;100559.59;5094921;28;20059;-73
2022/09/19 01:52:48;;;;;;;3.17;1.80;;;;;;;23.26;45.74;100557.91;5095417;28;20051;-74
2022/09/19 01:55:50;;;;;;;2.25;1.63;;;;;;;23.26;45.55;100555.22;5095039;28;20396;-74
2022/09/19 01:58:21;;;;;;;3.42;1.75;;;;;;;23.27;45.60;100553.34;5094823;28;20051;-73
2022/09/19 02:01:18;;;;;;;3.90;1.80;;;;;;;23.26;45.58;100543.56;5095235;28;20071;-74
2022/09/19 02:03:52;;;;;;;2.47;1.52;;;;;;;23.27;45.79;100542.56;5094837;28;20056;-74
2022/09/19 02:06:29;;;;;;;3.47;1.70;;;;;;;23.26;45.77;100535.47;5095143;28;20059;-74
2022/09/19 02:09:03;;;;;;;2.53;2.03;;;;;;;23.26;45.56;100530.91;5094750;28;20044;-74
2022/09/19 02:11:52;;;;;;;2.42;1.58;;;;;;;23.25;45.70;100520.25;5094430;28;20407;-74
2022/09/19 02:14:26;;;;;;;2.50;1.60;;;;;;;23.27;45.78;100531.75;5094640;28;20048;-74
2022/09/19 02:17:04;;;;;;;4.03;1.80;;;;;;;23.25;45.74;100522.94;5095294;28;20056;-73
2022/09/19 02:19:41;;;;;;;3.15;1.80;;;;;;;23.25;45.89;100525.66;5094606;28;20051;-73
2022/09/19 02:22:20;;;;;;;2.83;1.88;;;;;;;23.25;45.77;100526.50;5095006;28;20511;-73
2022/09/19 02:24:49;;;;;;;3.85;1.67;;;;;;;23.25;45.69;100523.78;5094152;28;20052;-74
2022/09/19 02:27:21;;;;;;;3.38;1.65;;;;;;;23.25;45.87;100522.94;5094358;28;20048;-74
2022/09/19 02:29:57;;;;;;;2.75;1.73;;;;;;;23.25;45.67;100517.56;5094060;28;20059;-74
2022/09/19 02:32:27;;;;;;;5.03;1.70;;;;;;;23.25;45.65;100517.56;5094450;28;20056;-73
2022/09/19 02:34:56;;;;;;;3.95;1.98;;;;;;;23.25;45.72;100517.56;5093978;28;20059;-74
2022/09/19 02:37:30;;;;;;;3.20;1.80;;;;;;;23.24;45.72;100510.47;5095928;28;20036;-74
2022/09/19 02:40:25;;;;;;;2.92;2.05;;;;;;;23.24;45.95;100507.75;5093880;28;20063;-74
2022/09/19 02:43:04;;;;;;;2.70;1.75;;;;;;;23.24;45.85;100510.47;5095659;28;20498;-74
2022/09/19 02:45:39;;;;;;;2.10;1.45;;;;;;;23.23;45.77;100508.78;5094059;28;20075;-74
2022/09/19 02:48:19;;;;;;;3.00;1.73;;;;;;;23.24;45.92;100505.91;5093688;28;20044;-74
2022/09/19 02:50:52;;;;;;;2.63;1.80;;;;;;;23.23;45.93;100506.91;5093644;28;20063;-74
2022/09/19 02:53:26;;;;;;;4.00;1.92;;;;;;;23.24;46.08;100510.47;5094202;28;20059;-74
2022/09/19 02:56:00;;;;;;;2.67;1.98;;;;;;;23.23;45.86;100512.31;5094005;28;20048;-74
2022/09/19 02:58:38;;;;;;;2.38;1.60;;;;;;;23.22;45.73;100505.25;5094061;28;20048;-74
2022/09/19 03:01:12;;;;;;;2.90;1.77;;;;;;;23.22;45.83;100501.69;5093749;28;20055;-74
2022/09/19 03:06:47;;;;;;;3.05;2.00;;;;;;;23.22;45.91;100493.59;5093892;28;20059;-74
2022/09/19 03:09:19;;;;;;;3.20;1.90;;;;;;;23.22;46.03;100499.00;5093314;28;20052;-74
2022/09/19 03:11:55;;;;;;;2.47;1.80;;;;;;;23.22;46.04;100496.28;5076877;28;20071;-73
2022/09/19 03:14:24;;;;;;;2.35;1.80;;;;;;;23.22;46.07;100497.13;5093351;28;20063;-74
2022/09/19 03:16:56;;;;;;;2.10;1.60;;;;;;;23.22;46.04;100496.28;5093519;28;20052;-74
2022/09/19 03:19:27;;;;;;;3.20;1.70;;;;;;;23.22;45.92;100493.59;5092912;28;20051;-73
2022/09/19 03:21:55;;;;;;;3.63;1.50;;;;;;;23.22;46.18;100491.75;5094320;28;20067;-74
2022/09/19 03:24:23;;;;;;;2.00;1.50;;;;;;;23.22;46.10;100496.28;5093307;28;20389;-74
2022/09/19 03:26:50;;;;;;;3.75;1.60;;;;;;;23.20;46.12;100494.59;5094282;28;20050;-74
2022/09/19 03:29:18;;;;;;;1.80;1.30;;;;;;;23.22;46.00;100494.44;5093134;28;20044;-74
2022/09/19 03:31:53;;;;;;;2.40;1.45;;;;;;;23.21;46.36;100495.44;5093954;28;20059;-74
2022/09/19 03:34:22;;;;;;;3.78;1.65;;;;;;;23.23;46.36;100497.97;5092845;28;20056;-73
2022/09/19 03:36:51;;;;;;;2.58;1.70;;;;;;;23.22;46.31;100488.19;5093301;28;20495;-74
2022/09/19 03:39:23;;;;;;;3.53;1.50;;;;;;;23.20;46.33;100494.59;5092710;28;20051;-74
2022/09/19 03:41:52;;;;;;;2.83;1.77;;;;;;;23.20;46.34;100491.88;5093176;28;20307;-79
2022/09/19 03:44:19;;;;;;;3.10;1.52;;;;;;;23.20;46.34;100491.88;5094315;28;20055;-74
2022/09/19 03:46:48;;;;;;;2.88;1.88;;;;;;;23.20;46.28;100491.88;5092935;28;20055;-73
2022/09/19 03:49:16;;;;;;;5.45;1.90;;;;;;;23.20;46.23;100502.69;5092919;28;20047;-73
2022/09/19 03:51:46;;;;;;;3.25;1.95;;;;;;;23.20;46.35;100502.69;5093181;28;20056;-73
2022/09/19 03:54:15;;;;;;;2.40;1.70;;;;;;;23.20;46.63;100499.97;5092870;28;20060;-75
2022/09/19 03:56:43;;;;;;;4.45;1.83;;;;;;;23.20;46.41;100497.28;5093840;28;20407;-73
2022/09/19 03:59:12;;;;;;;2.72;1.73;;;;;;;23.20;46.55;100505.38;5092696;28;20491;-74
2022/09/19 04:01:42;;;;;;;3.08;1.60;;;;;;;23.20;46.43;100499.16;5092964;28;20427;-74
2022/09/19 04:04:11;;;;;;;2.30;1.60;;;;;;;23.20;46.58;100499.16;5092397;28;20048;-73
2022/09/19 04:06:47;;;;;;;2.97;1.60;;;;;;;23.20;46.27;100499.97;5092929;28;20538;-74
2022/09/19 04:09:14;;;;;;;3.00;1.90;;;;;;;23.20;46.50;100493.75;5092508;28;20047;-73
2022/09/19 04:11:45;;;;;;;2.97;1.73;;;;;;;23.19;46.51;100501.00;5092663;28;20055;-74
2022/09/19 04:14:12;;;;;;;3.45;1.75;;;;;;;23.19;46.48;100497.47;5093618;28;20040;-74
2022/09/19 04:16:39;;;;;;;2.30;1.40;;;;;;;23.19;46.24;100503.69;5094120;28;20047;-74
2022/09/19 04:19:09;;;;;;;6.95;1.50;;;;;;;23.19;46.45;100509.09;5092572;28;20048;-74
2022/09/19 04:21:49;;;;;;;3.85;1.63;;;;;;;23.18;46.32;100503.88;5092468;28;20055;-73
2022/09/19 04:24:29;;;;;;;4.85;1.70;;;;;;;23.18;46.32;100511.97;5092246;28;20052;-73
2022/09/19 04:27:17;;;;;;;4.78;2.00;;;;;;;23.18;46.56;100512.81;5093391;28;20067;-74
2022/09/19 04:29:49;;;;;;;3.30;1.80;;;;;;;23.18;46.50;100511.97;5093205;28;20048;-73
2022/09/19 04:32:16;;;;;;;3.15;1.70;;;;;;;23.16;46.31;100520.22;5080303;28;20052;-74
2022/09/19 04:34:49;;;;;;;3.28;1.83;;;;;;;23.17;46.37;100519.25;5096292;28;20051;-73
2022/09/19 04:37:17;;;;;;;2.85;1.70;;;;;;;23.16;46.41;100512.13;5096475;28;20399;-74
2022/09/19 04:39:51;;;;;;;4.25;1.45;;;;;;;23.17;46.11;100518.38;5096678;28;20055;-74
2022/09/19 04:42:19;;;;;;;3.75;1.83;;;;;;;23.17;46.11;100510.28;5096426;28;20044;-74
2022/09/19 04:44:46;;;;;;;2.38;1.60;;;;;;;23.17;46.23;100504.88;5096692;28;20052;-74
2022/09/19 04:47:37;;;;;;;3.00;1.60;;;;;;;23.17;46.13;100512.97;5096072;28;20052;-74
2022/09/19 04:50:10;;;;;;;4.30;1.70;;;;;;;23.16;46.20;100509.44;5078423;28;20048;-74
2022/09/19 04:52:38;;;;;;;2.38;1.88;;;;;;;23.16;46.08;100519.38;5095300;28;20077;-74
2022/09/19 04:55:07;;;;;;;2.50;1.80;;;;;;;23.15;46.14;100518.53;5078183;28;20059;-74
2022/09/19 04:57:35;;;;;;;2.10;1.52;;;;;;;23.14;46.12;100522.25;5094905;28;20075;-74
2022/09/19 05:00:10;;;;;;;2.20;1.60;;;;;;;23.14;46.12;100530.38;5078095;28;20048;-74
2022/09/19 05:02:41;;;;;;;2.70;1.55;;;;;;;23.15;46.16;100532.03;5077927;28;20048;-74
2022/09/19 05:05:08;;;;;;;4.18;1.90;;;;;;;23.15;46.01;100542.00;5077847;28;20044;-73
2022/09/19 05:07:37;;;;;;;2.42;1.92;;;;;;;23.14;46.08;100538.47;5077809;28;20052;-73
2022/09/19 05:10:08;;;;;;;2.78;1.73;;;;;;;23.15;46.07;100542.00;5077437;28;20048;-73
2022/09/19 05:12:37;;;;;;;2.85;1.60;;;;;;;23.14;46.25;100551.97;5077625;28;20052;-73
2022/09/19 05:15:05;;;;;;;2.78;1.70;;;;;;;23.14;46.07;100562.78;5094450;28;20056;-73
2022/09/19 05:17:32;;;;;;;2.45;1.50;;;;;;;23.14;46.40;100560.06;5078006;28;20052;-73
2022/09/19 05:20:00;;;;;;;2.65;1.80;;;;;;;23.13;46.20;100561.09;5077477;28;20052;-73
2022/09/19 05:22:29;;;;;;;3.35;2.08;;;;;;;23.12;46.41;100559.38;5077709;28;20059;-73
2022/09/19 05:25:02;;;;;;;2.80;1.67;;;;;;;23.14;46.15;100575.44;5085593;28;20063;-73
2022/09/19 05:27:36;;;;;;;3.25;1.83;;;;;;;23.13;46.21;100577.28;5095224;28;20055;-73
2022/09/19 05:30:05;;;;;;;2.88;1.55;;;;;;;23.12;46.18;100577.44;5095633;28;20047;-73
2022/09/19 05:32:34;;;;;;;2.45;1.70;;;;;;;23.12;46.40;100583.69;5095453;28;20044;-73
2022/09/19 05:35:20;;;;;;;2.13;1.52;;;;;;;23.13;46.28;100595.31;5094291;28;20395;-73
2022/09/19 05:38:20;;;;;;;2.45;1.73;;;;;;;23.12;46.15;100586.38;5073598;28;20191;-73
2022/09/19 05:40:57;;;;;;;3.22;1.77;;;;;;;23.11;46.48;100587.38;5055822;28;20507;-74
2022/09/19 05:43:47;;;;;;;2.85;1.58;;;;;;;23.12;46.38;100590.94;5072521;28;20051;-73
2022/09/19 05:46:15;;;;;;;2.88;1.80;;;;;;;23.12;46.18;100602.56;5056120;28;20459;-73
2022/09/19 05:48:47;;;;;;;2.10;1.42;;;;;;;23.11;46.11;100600.91;5072697;28;20049;-73
2022/09/19 05:51:15;;;;;;;2.58;1.80;;;;;;;23.11;46.18;100598.19;5055900;28;20044;-73
2022/09/19 05:53:52;;;;;;;1.98;1.60;;;;;;;23.12;46.38;100596.34;5072243;28;20049;-73
2022/09/19 05:56:44;;;;;;;2.47;1.60;;;;;;;23.12;46.35;100599.03;5054513;28;20443;-73
2022/09/19 05:59:12;;;;;;;3.63;1.67;;;;;;;23.10;46.28;100604.59;5055732;28;20045;-73
2022/09/19 06:01:42;;;;;;;3.10;1.60;;;;;;;23.11;46.39;100609.00;5072640;28;20052;-73
2022/09/19 06:04:25;;;;;;;2.10;1.40;;;;;;;23.11;46.16;100611.69;5055725;28;20048;-73
2022/09/19 06:06:52;;;;;;;3.10;1.98;;;;;;;23.12;46.22;100612.53;5055634;28;20068;-74
2022/09/19 06:09:20;;;;;;;5.05;1.65;;;;;;;23.12;46.36;100615.22;5071958;28;20071;-74
2022/09/19 06:11:52;;;;;;;5.30;1.70;;;;;;;23.11;46.23;100619.78;5072023;28;20127;-73
2022/09/19 06:14:23;;;;;;;3.05;1.70;;;;;;;23.12;46.31;100620.63;5085210;28;20055;-74
2022/09/19 06:16:51;;;;;;;2.70;2.00;;;;;;;23.12;46.35;100620.63;5093651;28;20125;-73
2022/09/19 06:19:37;;;;;;;2.25;1.70;;;;;;;23.12;46.28;100624.19;5101383;28;20051;-73
2022/09/19 06:22:11;;;;;;;2.10;1.60;;;;;;;23.12;46.42;100620.63;5093526;28;20048;-73
2022/09/19 06:24:41;;;;;;;2.47;1.58;;;;;;;23.12;46.22;100629.56;5093482;28;20063;-73
2022/09/19 06:27:11;;;;;;;2.45;1.52;;;;;;;23.14;46.25;100632.13;5093317;28;20055;-73
2022/09/19 06:29:42;;;;;;;4.45;1.92;;;;;;;23.14;46.39;100632.13;5093650;28;20488;-73
2022/09/19 06:32:22;;;;;;;2.22;1.80;;;;;;;23.14;45.18;100634.84;5092961;28;20048;-73
2022/09/19 06:35:18;;;;;;;4.00;2.28;;;;;;;23.14;44.72;100637.53;5027904;28;20371;-75
2022/09/19 06:37:47;;;;;;;3.50;1.70;;;;;;;23.14;44.93;100641.09;5028311;28;20041;-74
2022/09/19 06:40:22;;;;;;;2.95;2.45;;;;;;;23.15;44.94;100645.47;5025862;28;20417;-74
2022/09/19 06:43:09;;;;;;;5.78;2.67;;;;;;;23.15;44.50;100642.75;5035177;28;20048;-75
2022/09/19 06:45:56;;;;;;;4.30;2.67;;;;;;;23.10;44.31;100638.88;4986898;28;20077;-73
2022/09/19 06:48:43;;;;;;;4.78;2.63;;;;;;;23.08;43.68;100654.38;4986468;28;20434;-74
2022/09/19 06:51:39;;;;;;;5.88;2.78;;;;;;;23.08;44.21;100646.28;5027615;28;20170;-76
2022/09/19 06:54:08;;;;;;;7.20;3.35;;;;;;;23.10;44.57;100644.28;5012099;28;20061;-75
2022/09/19 06:56:35;;;;;;;9.45;3.10;;;;;;;23.10;44.29;100642.41;5028800;28;20061;-75
2022/09/19 06:59:06;;;;;;;5.03;3.00;;;;;;;23.11;44.47;100648.66;5026730;28;20049;-76
2022/09/19 07:01:34;;;;;;;6.30;3.25;;;;;;;23.09;44.49;100646.13;5029329;28;20045;-76
2022/09/19 07:04:02;;;;;;;7.22;3.15;;;;;;;23.10;44.45;100655.91;4994453;28;20387;-77
2022/09/19 07:07:07;;;;;;;3.88;2.83;;;;;;;23.11;44.45;100641.41;5004220;28;20626;-76
2022/09/19 07:09:41;;;;;;;4.32;3.08;;;;;;;23.13;44.31;100652.91;5012203;28;20425;-76
2022/09/19 07:12:10;;;;;;;6.10;2.90;;;;;;;23.15;44.56;100658.97;5012107;28;20057;-75
2022/09/19 07:14:45;;;;;;;7.50;2.67;;;;;;;23.16;44.61;100657.94;5012366;28;20045;-74
2022/09/19 07:17:16;;;;;;;8.52;2.78;;;;;;;23.18;45.37;100652.41;4995519;28;20049;-77
2022/09/19 07:19:46;;;;;;;7.03;3.07;;;;;;;23.20;44.78;100653.06;5012312;28;20052;-78
2022/09/19 07:22:35;;;;;;;5.75;2.88;;;;;;;23.22;45.51;100653.78;5021491;28;20056;-78
2022/09/19 07:25:14;;;;;;;4.97;2.83;;;;;;;23.25;45.41;100663.41;5052538;28;20052;-76
2022/09/19 07:28:06;;;;;;;3.25;2.28;;;;;;;23.27;45.58;100666.78;5031631;28;20061;-76
2022/09/19 07:30:36;;;;;;;5.20;2.00;;;;;;;23.26;45.59;100665.94;5008802;28;20050;-78
2022/09/19 07:33:07;;;;;;;5.38;2.78;;;;;;;23.29;46.00;100670.16;5018393;28;20082;-77
2022/09/19 07:35:36;;;;;;;5.05;2.60;;;;;;;23.30;45.82;100678.13;5026145;28;20050;-77
2022/09/19 07:38:05;;;;;;;6.28;2.70;;;;;;;23.32;45.70;100677.94;5026172;28;20515;-76
2022/09/19 07:41:01;;;;;;;4.07;2.10;;;;;;;23.33;46.20;100682.34;4986834;28;20064;-75
2022/09/19 07:43:48;;;;;;;4.68;1.95;;;;;;;23.34;46.09;100684.91;4970569;28;20042;-75
2022/09/19 07:46:34;;;;;;;6.57;2.30;;;;;;;23.36;45.86;100687.44;4979903;28;20070;-75
2022/09/19 07:49:20;;;;;;;6.82;2.10;;;;;;;23.36;45.78;100682.88;4977130;28;20054;-75
2022/09/19 07:52:08;;;;;;;5.28;1.90;;;;;;;23.37;45.95;100695.34;4957519;28;20055;-75
2022/09/19 07:54:37;;;;;;;4.50;2.30;;;;;;;23.38;45.59;100713.28;4957238;28;20058;-75
2022/09/19 07:57:05;;;;;;;4.68;1.90;;;;;;;23.38;45.90;100715.13;4973497;28;20055;-76
2022/09/19 07:59:32;;;;;;;4.30;2.10;;;;;;;23.39;45.83;100720.38;4956593;28;20046;-76
2022/09/19 08:02:03;;;;;;;6.07;2.13;;;;;;;23.40;45.50;100732.03;4956247;28;20173;-75
2022/09/19 08:04:38;;;;;;;4.28;1.95;;;;;;;23.40;45.67;100722.06;4957102;28;20059;-76
2022/09/19 08:07:06;;;;;;;6.78;2.13;;;;;;;23.41;46.05;100728.31;4957842;28;20054;-76
2022/09/19 08:09:36;;;;;;;3.63;1.52;;;;;;;23.41;45.77;100728.31;4957752;28;20058;-76
2022/09/19 08:12:12;;;;;;;4.47;2.13;;;;;;;23.42;45.72;100730.03;4957392;28;20097;-76
2022/09/19 08:15:00;;;;;;;5.78;2.20;;;;;;;23.42;45.99;100725.47;4972730;28;20066;-76
2022/09/19 08:17:28;;;;;;;2.40;1.60;;;;;;;23.43;45.93;100732.53;4980292;28;20061;-74
2022/09/19 08:19:56;;;;;;;4.60;2.10;;;;;;;23.42;46.11;100725.47;5012808;28;20409;-76
2022/09/19 08:22:24;;;;;;;3.85;1.60;;;;;;;23.43;45.84;100723.59;5011777;28;20045;-76
2022/09/19 08:25:01;;;;;;;3.45;1.92;;;;;;;23.43;45.91;100727.16;5011680;28;20060;-76
2022/09/19 08:27:30;;;;;;;2.67;1.80;;;;;;;23.45;45.88;100732.38;5011251;28;20068;-76
2022/09/19 08:29:58;;;;;;;4.53;1.80;;;;;;;23.46;45.91;100734.09;5010661;28;20489;-75
2022/09/19 08:32:27;;;;;;;5.13;2.00;;;;;;;23.47;45.90;100732.22;5011159;28;20117;-76
2022/09/19 08:34:54;;;;;;;4.30;1.75;;;;;;;23.47;45.83;100726.81;5011180;28;20394;-76
2022/09/19 08:37:22;;;;;;;3.42;1.80;;;;;;;23.48;45.89;100739.31;4995206;28;20532;-76
2022/09/19 08:43:12;;;;;;;3.42;1.55;;;;;;;23.48;46.23;100742.03;5010623;28;20050;-76
2022/09/19 08:46:43;;;;;;;4.40;1.90;;;;;;;23.48;46.16;100742.03;5010945;28;20038;-76
2022/09/19 08:49:18;;;;;;;2.60;1.83;;;;;;;23.49;46.08;100752.66;4969799;28;20047;-77
2022/09/19 08:51:46;;;;;;;2.45;1.60;;;;;;;23.49;46.20;100747.25;4951803;29;20056;-76
2022/09/19 08:54:18;;;;;;;6.70;1.80;;;;;;;23.50;46.24;100754.38;4937412;28;20055;-77
2022/09/19 08:56:45;;;;;;;5.28;1.67;;;;;;;23.51;46.30;100749.81;4936155;28;20055;-76
2022/09/19 08:59:23;;;;;;;3.13;1.90;;;;;;;23.51;46.33;100749.81;4937038;28;20062;-76
2022/09/19 09:02:01;;;;;;;4.88;2.40;;;;;;;23.51;46.17;100745.25;4936831;28;20530;-76
2022/09/19 09:05:01;;;;;;;3.40;1.90;;;;;;;23.51;46.49;100745.25;4967245;28;20055;-77
2022/09/19 09:07:48;;;;;;;4.22;2.08;;;;;;;23.52;46.42;100748.81;4936936;28;20469;-77
2022/09/19 09:10:55;;;;;;;5.07;1.80;;;;;;;23.53;46.51;100753.19;4949253;28;20410;-77
2022/09/19 09:13:45;;;;;;;2.92;1.83;;;;;;;23.52;46.37;100752.34;4935490;28;20067;-76
2022/09/19 09:17:01;;;;;;;3.42;1.90;;;;;;;23.53;46.22;100756.72;4967115;28;20055;-77
2022/09/19 09:20:03;;;;;;;3.40;1.70;;;;;;;23.52;46.27;100752.34;4980513;28;20055;-77
2022/09/19 09:22:43;;;;;;;4.93;2.47;;;;;;;23.54;46.34;100757.59;4990555;28;20066;-77
2022/09/19 09:25:41;;;;;;;2.05;1.52;;;;;;;23.53;46.51;100754.03;4989930;28;20188;-77
2022/09/19 09:28:26;;;;;;;3.05;1.60;;;;;;;23.53;46.31;100759.44;4973502;28;20453;-76
2022/09/19 09:31:25;;;;;;;4.57;1.60;;;;;;;23.55;46.29;100762.00;5052009;28;20377;-77
2022/09/19 09:34:03;;;;;;;;;;;;;;;23.54;46.52;100766.56;5035825;28;20061;-77
2022/09/19 09:36:39;;;;;;;4.80;1.55;;;;;;;23.55;46.28;100762.00;5035613;28;19921;-77
2022/09/19 09:39:20;;;;;;;3.65;1.75;;;;;;;23.55;46.50;100765.53;5035282;28;20053;-77
2022/09/19 09:41:53;;;;;;;3.20;1.70;;;;;;;23.55;46.48;100764.69;5035260;28;20057;-77
2022/09/19 09:44:44;;;;;;;2.10;1.52;;;;;;;23.55;46.40;100756.59;5035517;28;20064;-77
2022/09/19 09:47:24;;;;;;;3.53;1.67;;;;;;;23.55;46.45;100757.44;5035373;28;20056;-77
2022/09/19 09:50:04;;;;;;;2.42;1.35;;;;;;;23.55;46.59;100757.44;5051488;28;20053;-77
2022/09/19 09:53:00;;;;;;;2.00;1.38;;;;;;;23.55;46.46;100760.13;5035443;28;20053;-77
2022/09/19 09:58:42;;;;;;;3.35;1.50;;;;;;;23.56;46.58;100760.97;5035179;28;20056;-77
2022/09/19 10:04:30;;;;;;;2.65;1.33;;;;;;;23.57;49.16;100765.38;5013693;28;20062;-77
2022/09/19 10:07:12;;;;;;;2.65;1.70;;;;;;;23.56;50.10;100766.38;5015345;28;20435;-77
2022/09/19 10:09:59;;;;;;;3.05;2.10;;;;;;;23.57;51.39;100768.06;4989925;28;20050;-76
2022/09/19 10:12:45;;;;;;;2.38;1.73;;;;;;;23.55;52.33;100765.53;4989996;28;20057;-76
2022/09/19 10:15:24;;;;;;;2.75;1.70;;;;;;;23.55;51.75;100767.41;4990381;28;20062;-77
2022/09/19 10:18:09;;;;;;;3.88;1.65;;;;;;;23.54;52.54;100773.81;4992676;28;20497;-77
2022/09/19 10:20:52;;;;;;;3.22;1.58;;;;;;;23.53;51.57;100774.81;4990594;28;20497;-77
2022/09/19 10:23:25;;;;;;;5.30;1.83;;;;;;;23.53;52.40;100767.53;4992241;28;20058;-77
2022/09/19 10:26:14;;;;;;;2.53;1.85;;;;;;;23.53;52.56;100767.53;4990743;28;20367;-77
2022/09/19 10:28:51;;;;;;;3.67;1.70;;;;;;;23.53;52.48;100764.00;4992268;28;20051;-77
2022/09/19 10:31:40;;;;;;;4.03;1.90;;;;;;;23.52;52.08;100768.56;4991667;28;20055;-77
2022/09/19 10:34:34;;;;;;;2.97;1.60;;;;;;;23.52;52.52;100765.00;4990525;28;20065;-77
2022/09/19 10:37:25;;;;;;;2.22;1.80;;;;;;;23.50;52.24;100762.47;4990038;28;20054;-77
2022/09/19 10:39:59;;;;;;;2.70;1.85;;;;;;;23.51;52.45;100766.88;4990613;28;20047;-77
2022/09/19 10:42:36;;;;;;;2.70;1.88;;;;;;;23.51;52.72;100761.47;4992175;28;20501;-77
2022/09/19 10:45:28;;;;;;;2.88;1.98;;;;;;;23.51;53.04;100758.75;4991292;28;20049;-77
2022/09/19 10:48:11;;;;;;;4.43;1.95;;;;;;;23.50;53.41;100759.78;4990424;28;20054;-77
2022/09/19 10:50:45;;;;;;;2.03;1.80;;;;;;;23.51;53.61;100760.63;4989866;28;20055;-76
2022/09/19 10:53:22;;;;;;;2.83;1.85;;;;;;;23.51;52.99;100768.72;4992251;28;20371;-77
2022/09/19 10:55:52;;;;;;;2.80;1.63;;;;;;;23.50;53.13;100769.72;4992125;28;20505;-76
2022/09/19 10:58:26;;;;;;;2.63;1.85;;;;;;;23.51;53.28;100769.56;4990268;28;20057;-76
2022/09/19 11:01:22;;;;;;;2.38;1.65;;;;;;;23.51;52.70;100768.72;4993117;28;20057;-77
2022/09/19 11:04:07;;;;;;;7.43;2.05;;;;;;;23.51;52.68;100766.88;4989965;28;20062;-77
2022/09/19 11:06:35;;;;;;;2.10;1.60;;;;;;;23.52;52.44;100768.56;4989767;28;20050;-77
2022/09/19 11:09:22;;;;;;;2.80;1.60;;;;;;;23.51;52.21;100766.03;4992311;28;20047;-77
2022/09/19 11:11:51;;;;;;;3.05;1.70;;;;;;;23.52;52.04;100767.72;4990623;28;20503;-77
2022/09/19 11:14:32;;;;;;;4.22;2.00;;;;;;;23.52;51.51;100775.81;4990177;28;20058;-80
2022/09/19 11:17:29;;;;;;;5.35;1.98;;;;;;;23.52;51.58;100768.56;4990263;28;20051;-76
2022/09/19 11:20:16;;;;;;;2.63;1.63;;;;;;;23.53;50.89;100764.84;4990849;28;20050;-77
2022/09/19 11:23:34;;;;;;;4.22;1.60;;;;;;;23.53;50.97;100764.84;4993608;28;20077;-79
2022/09/19 11:26:04;;;;;;;4.20;2.05;;;;;;;23.53;50.93;100764.84;4977939;28;20062;-77
2022/09/19 11:28:50;;;;;;;2.67;1.85;;;;;;;23.54;50.47;100766.56;4995571;28;20057;-79
2022/09/19 11:31:22;;;;;;;2.97;1.50;;;;;;;23.54;50.50;100758.44;4994581;28;20050;-80
2022/09/19 11:34:12;;;;;;;2.42;1.80;;;;;;;23.54;49.99;100766.56;4993772;28;20051;-81
2022/09/19 11:37:26;;;;;;;3.05;2.10;;;;;;;23.55;50.00;100765.53;4993918;28;20073;-77
2022/09/19 11:40:17;;;;;;;3.17;1.80;;;;;;;23.55;49.88;100759.28;4994006;28;20393;-77
2022/09/19 11:43:12;;;;;;;3.75;1.83;;;;;;;23.54;49.59;100760.31;4993130;28;20061;-77
2022/09/19 11:45:59;;;;;;;2.55;1.60;;;;;;;23.55;49.54;100767.41;4992640;28;20510;-77
2022/09/19 11:49:01;;;;;;;5.22;2.40;;;;;;;23.55;48.93;100754.72;4994384;28;20062;-77
2022/09/19 11:51:56;;;;;;;3.40;2.08;;;;;;;23.56;48.74;100758.28;4992698;28;20055;-77
2022/09/19 11:54:44;;;;;;;2.78;1.80;;;;;;;23.54;48.24;100749.50;4977591;28;20059;-77
2022/09/19 11:57:28;;;;;;;2.55;1.90;;;;;;;23.55;47.36;100752.03;4992740;28;20486;-76
2022/09/19 12:00:12;;;;;;;4.43;2.13;;;;;;;23.53;44.17;100743.22;4993070;28;20073;-77
2022/09/19 12:03:02;;;;;;;2.55;1.60;;;;;;;23.51;42.03;100745.25;4993163;28;20057;-77
2022/09/19 12:05:52;;;;;;;3.90;2.15;;;;;;;23.49;41.74;100741.84;4992542;28;20066;-77
2022/09/19 12:08:45;;;;;;;4.53;2.17;;;;;;;23.48;42.25;100734.75;4994619;28;20065;-77
2022/09/19 12:11:18;;;;;;;3.80;2.05;;;;;;;23.48;42.48;100737.47;4994521;28;20156;-77
2022/09/19 12:14:00;;;;;;;3.97;1.65;;;;;;;23.46;42.73;100736.78;4992353;28;20051;-77
2022/09/19 12:16:41;;;;;;;3.67;2.28;;;;;;;23.46;43.18;100731.38;4994405;28;20050;-77
2022/09/19 12:19:21;;;;;;;2.85;2.00;;;;;;;23.46;43.65;100736.78;4992154;28;20050;-77
2022/09/19 12:22:00;;;;;;;3.42;1.90;;;;;;;23.45;42.80;100732.38;4991738;28;20057;-77
2022/09/19 12:24:52;;;;;;;3.00;1.75;;;;;;;23.47;43.04;100734.94;4998871;28;20069;-77
2022/09/19 12:27:31;;;;;;;3.70;1.73;;;;;;;23.47;42.69;100727.66;5012155;28;20050;-77